createdAt,value
2019-06-01T00:02:17.820Z,99.90
2019-06-01T00:04:45.356Z,99.90
2019-06-01T00:07:12.817Z,99.90
2019-06-01T00:09:40.995Z,99.90
2019-06-01T00:12:08.453Z,99.90
2019-06-01T00:14:35.768Z,99.90
2019-06-01T00:17:03.500Z,99.90
2019-06-01T00:19:33.785Z,99.90
2019-06-01T00:22:01.277Z,99.90
2019-06-01T00:24:29.021Z,99.90
2019-06-01T00:26:56.518Z,99.90
2019-06-01T00:29:24.158Z,99.90
2019-06-01T00:31:52.102Z,99.90
2019-06-01T00:34:19.756Z,99.90
2019-06-01T00:36:47.794Z,99.90
2019-06-01T00:39:15.266Z,99.90
2019-06-01T00:41:43.879Z,99.90
2019-06-01T00:44:11.361Z,99.90
2019-06-01T00:46:38.907Z,99.90
2019-06-01T00:49:06.634Z,99.90
2019-06-01T00:51:34.630Z,99.90
2019-06-01T00:54:02.619Z,99.90
2019-06-01T00:56:30.033Z,99.90
2019-06-01T00:58:57.446Z,99.90
2019-06-01T01:01:25.170Z,99.90
2019-06-01T01:03:52.767Z,99.90
2019-06-01T01:06:20.380Z,99.90
2019-06-01T01:08:48.982Z,99.90
2019-06-01T01:11:16.732Z,99.90
2019-06-01T01:13:45.704Z,99.90
2019-06-01T01:16:13.162Z,99.90
2019-06-01T01:18:40.851Z,99.90
2019-06-01T01:21:08.200Z,99.90
2019-06-01T01:23:35.804Z,99.90
2019-06-01T01:26:03.490Z,99.90
2019-06-01T01:28:30.992Z,99.90
2019-06-01T01:31:12.089Z,99.90
2019-06-01T01:33:28.010Z,99.90
2019-06-01T01:35:55.920Z,99.90
2019-06-01T01:38:23.645Z,99.90
2019-06-01T01:40:52.132Z,99.90
2019-06-01T01:43:20.076Z,99.90
2019-06-01T01:45:48.542Z,99.90
2019-06-01T01:48:16.258Z,99.90
2019-06-01T01:50:43.709Z,99.90
2019-06-01T01:53:11.131Z,99.90
2019-06-01T01:55:38.557Z,99.90
2019-06-01T01:58:05.984Z,99.90
2019-06-01T02:00:36.255Z,99.90
2019-06-01T02:03:04.175Z,99.90
2019-06-01T02:05:31.613Z,99.90
2019-06-01T02:08:00.065Z,99.90
2019-06-01T02:10:28.025Z,99.90
2019-06-01T02:12:55.572Z,99.90
2019-06-01T02:15:23.018Z,99.90
2019-06-01T02:17:52.012Z,99.90
2019-06-01T02:20:19.792Z,99.90
2019-06-01T02:22:47.157Z,99.90
2019-06-01T02:25:17.209Z,99.90
2019-06-01T02:27:44.931Z,99.90
2019-06-01T02:30:14.681Z,99.90
2019-06-01T02:32:42.681Z,99.90
2019-06-01T02:35:10.347Z,99.90
2019-06-01T02:37:38.046Z,99.90
2019-06-01T02:40:05.679Z,99.90
2019-06-01T02:42:33.067Z,99.90
2019-06-01T02:45:01.531Z,99.90
2019-06-01T02:47:29.217Z,99.90
2019-06-01T02:49:57.636Z,99.90
2019-06-01T02:52:25.582Z,99.90
2019-06-01T02:54:53.315Z,99.90
2019-06-01T02:57:21.008Z,99.90
2019-06-01T02:59:48.470Z,99.90
2019-06-01T03:02:15.820Z,99.90
2019-06-01T03:04:43.626Z,99.90
2019-06-01T03:07:13.316Z,99.90
2019-06-01T03:09:40.922Z,99.90
2019-06-01T03:12:11.717Z,99.90
2019-06-01T03:14:41.095Z,99.90
2019-06-01T03:17:12.195Z,99.90
2019-06-01T03:19:41.701Z,99.90
2019-06-01T03:22:12.096Z,99.90
2019-06-01T03:24:39.561Z,99.90
2019-06-01T03:27:12.344Z,99.90
2019-06-01T03:29:43.737Z,99.90
2019-06-01T03:32:29.725Z,99.90
2019-06-01T03:34:40.456Z,99.90
2019-06-01T03:37:09.063Z,99.90
2019-06-01T03:39:36.519Z,99.90
2019-06-01T03:42:05.122Z,99.90
2019-06-01T03:44:32.601Z,99.90
2019-06-01T03:47:01.538Z,99.90
2019-06-01T03:49:29.055Z,99.90
2019-06-01T03:51:56.482Z,99.90
2019-06-01T03:54:23.923Z,99.90
2019-06-01T03:56:51.373Z,99.90
2019-06-01T03:59:18.809Z,99.90
2019-06-01T04:01:47.218Z,99.90
2019-06-01T04:04:14.691Z,99.90
2019-06-01T04:06:42.103Z,99.90
2019-06-01T04:09:10.065Z,99.90
2019-06-01T04:11:37.490Z,99.90
2019-06-01T04:14:05.638Z,99.90
2019-06-01T04:16:33.673Z,99.90
2019-06-01T04:19:01.695Z,99.90
2019-06-01T04:21:29.664Z,99.90
2019-06-01T04:23:57.106Z,99.90
2019-06-01T04:26:24.526Z,99.90
2019-06-01T04:28:52.267Z,99.90
2019-06-01T04:31:19.714Z,99.90
2019-06-01T04:33:47.188Z,99.90
2019-06-01T04:36:15.853Z,99.90
2019-06-01T04:38:43.586Z,99.90
2019-06-01T04:41:11.959Z,99.90
2019-06-01T04:43:39.665Z,99.90
2019-06-01T04:46:16.258Z,99.90
2019-06-01T04:48:46.683Z,99.90
2019-06-01T04:51:14.965Z,99.90
2019-06-01T04:53:42.446Z,99.90
2019-06-01T04:56:11.034Z,99.90
2019-06-01T04:58:38.535Z,99.90
2019-06-01T05:01:06.869Z,99.90
2019-06-01T05:03:34.697Z,99.90
2019-06-01T05:06:02.122Z,99.90
2019-06-01T05:08:29.805Z,99.90
2019-06-01T05:10:57.436Z,99.90
2019-06-01T05:13:24.798Z,99.90
2019-06-01T05:15:52.228Z,99.90
2019-06-01T05:18:19.925Z,99.90
2019-06-01T05:20:47.280Z,99.90
2019-06-01T05:23:14.867Z,99.90
2019-06-01T05:25:42.836Z,99.90
2019-06-01T05:28:11.190Z,99.90
2019-06-01T05:30:38.603Z,99.90
2019-06-01T05:33:23.609Z,96.60
2019-06-01T05:35:35.271Z,96.70
2019-06-01T05:38:02.703Z,99.90
2019-06-01T05:40:30.107Z,98.70
2019-06-01T05:42:57.466Z,95.70
2019-06-01T05:45:25.194Z,97.10
2019-06-01T05:47:53.098Z,98.10
2019-06-01T05:50:25.701Z,96.80
2019-06-01T05:52:57.807Z,98.70
2019-06-01T05:55:25.530Z,95.40
2019-06-01T05:57:52.893Z,88.40
2019-06-01T06:00:35.127Z,82.00
2019-06-01T06:03:02.828Z,82.00
2019-06-01T06:05:30.249Z,79.30
2019-06-01T06:07:59.827Z,80.70
2019-06-01T06:10:30.280Z,77.40
2019-06-01T06:12:57.967Z,69.90
2019-06-01T06:15:25.337Z,74.80
2019-06-01T06:17:53.081Z,73.70
2019-06-01T06:20:20.823Z,68.80
2019-06-01T06:22:48.317Z,58.30
2019-06-01T06:25:16.407Z,58.90
2019-06-01T06:27:43.852Z,59.80
2019-06-01T06:30:12.724Z,63.50
2019-06-01T06:32:40.229Z,65.30
2019-06-01T06:35:07.854Z,66.20
2019-06-01T06:37:35.425Z,57.50
2019-06-01T06:40:03.867Z,58.60
2019-06-01T06:42:31.356Z,59.30
2019-06-01T06:44:58.850Z,59.70
2019-06-01T06:47:26.302Z,56.40
2019-06-01T06:49:59.683Z,54.80
2019-06-01T06:52:27.638Z,55.70
2019-06-01T06:54:56.116Z,57.10
2019-06-01T06:57:24.217Z,61.10
2019-06-01T06:59:51.937Z,57.80
2019-06-01T07:02:19.408Z,57.10
2019-06-01T07:04:46.916Z,55.50
2019-06-01T07:07:14.319Z,55.80
2019-06-01T07:09:41.765Z,52.90
2019-06-01T07:12:09.238Z,51.80
2019-06-01T07:14:38.538Z,53.50
2019-06-01T07:17:06.273Z,55.20
2019-06-01T07:19:33.728Z,54.00
2019-06-01T07:22:01.218Z,54.10
2019-06-01T07:24:28.704Z,50.40
2019-06-01T07:26:56.458Z,50.20
2019-06-01T07:29:24.227Z,48.70
2019-06-01T07:31:51.666Z,49.60
2019-06-01T07:34:31.078Z,48.70
2019-06-01T07:36:48.886Z,50.60
2019-06-01T07:39:16.310Z,51.50
2019-06-01T07:41:44.120Z,50.10
2019-06-01T07:44:11.557Z,50.00
2019-06-01T07:46:39.265Z,48.50
2019-06-01T07:49:06.883Z,46.60
2019-06-01T07:51:34.351Z,45.70
2019-06-01T07:54:02.607Z,46.00
2019-06-01T07:56:29.967Z,46.30
2019-06-01T07:58:57.374Z,45.90
2019-06-01T08:01:26.828Z,45.90
2019-06-01T08:03:53.974Z,47.10
2019-06-01T08:06:22.555Z,48.00
2019-06-01T08:08:50.912Z,52.30
2019-06-01T08:11:18.623Z,57.10
2019-06-01T08:13:46.319Z,61.30
2019-06-01T08:16:13.792Z,62.30
2019-06-01T08:18:42.578Z,58.40
2019-06-01T08:21:10.579Z,55.00
2019-06-01T08:23:38.032Z,53.20
2019-06-01T08:26:05.762Z,52.10
2019-06-01T08:28:33.533Z,51.70
2019-06-01T08:31:01.074Z,50.90
2019-06-01T08:33:31.532Z,49.20
2019-06-01T08:35:58.124Z,49.90
2019-06-01T08:38:25.622Z,50.20
2019-06-01T08:40:53.008Z,49.60
2019-06-01T08:43:20.472Z,47.50
2019-06-01T08:45:48.003Z,48.10
2019-06-01T08:48:15.767Z,48.30
2019-06-01T08:50:46.025Z,47.20
2019-06-01T08:53:13.125Z,45.80
2019-06-01T08:55:40.597Z,43.60
2019-06-01T08:58:08.079Z,42.40
2019-06-01T09:00:35.808Z,41.80
2019-06-01T09:03:03.662Z,43.10
2019-06-01T09:05:31.548Z,41.20
2019-06-01T09:07:59.024Z,43.50
2019-06-01T09:10:29.258Z,42.30
2019-06-01T09:12:56.519Z,41.30
2019-06-01T09:15:25.592Z,41.10
2019-06-01T09:17:53.123Z,40.50
2019-06-01T09:20:20.635Z,40.90
2019-06-01T09:22:48.336Z,39.90
2019-06-01T09:25:16.114Z,40.00
2019-06-01T09:27:43.548Z,40.60
2019-06-01T09:30:11.424Z,42.70
2019-06-01T09:32:39.090Z,44.20
2019-06-01T09:35:07.557Z,41.90
2019-06-01T09:37:35.072Z,40.20
2019-06-01T09:40:03.277Z,41.10
2019-06-01T09:42:30.996Z,40.30
2019-06-01T09:44:58.696Z,39.20
2019-06-01T09:47:27.074Z,38.10
2019-06-01T09:49:54.625Z,40.00
2019-06-01T09:52:22.078Z,38.50
2019-06-01T09:54:49.793Z,38.10
2019-06-01T09:57:17.566Z,36.60
2019-06-01T09:59:45.598Z,37.00
2019-06-01T10:02:13.014Z,36.70
2019-06-01T10:04:40.451Z,35.80
2019-06-01T10:07:07.907Z,39.40
2019-06-01T10:09:35.815Z,40.10
2019-06-01T10:12:03.888Z,39.50
2019-06-01T10:14:32.141Z,38.90
2019-06-01T10:16:59.868Z,40.50
2019-06-01T10:19:27.345Z,37.40
2019-06-01T10:21:55.059Z,38.60
2019-06-01T10:24:22.788Z,39.50
2019-06-01T10:26:55.150Z,40.50
2019-06-01T10:29:22.947Z,40.20
2019-06-01T10:31:50.377Z,39.70
2019-06-01T10:34:17.870Z,40.30
2019-06-01T10:36:45.336Z,39.80
2019-06-01T10:39:12.851Z,39.50
2019-06-01T10:41:41.477Z,39.30
2019-06-01T10:44:08.915Z,40.00
2019-06-01T10:46:37.604Z,41.80
2019-06-01T10:49:05.359Z,39.30
2019-06-01T10:51:34.048Z,38.30
2019-06-01T10:54:02.023Z,38.40
2019-06-01T10:56:29.830Z,38.40
2019-06-01T10:59:00.545Z,36.80
2019-06-01T11:01:26.434Z,38.20
2019-06-01T11:03:53.941Z,37.30
2019-06-01T11:06:36.284Z,38.60
2019-06-01T11:08:50.618Z,38.70
2019-06-01T11:11:18.072Z,40.00
2019-06-01T11:13:45.541Z,35.90
2019-06-01T11:16:13.016Z,34.80
2019-06-01T11:18:41.838Z,35.20
2019-06-01T11:21:09.341Z,32.90
2019-06-01T11:23:37.496Z,32.40
2019-06-01T11:26:05.233Z,36.30
2019-06-01T11:28:38.116Z,35.00
2019-06-01T11:31:06.046Z,35.20
2019-06-01T11:33:34.160Z,31.10
2019-06-01T11:36:02.374Z,31.00
2019-06-01T11:38:29.846Z,32.20
2019-06-01T11:40:57.304Z,32.50
2019-06-01T11:43:24.805Z,33.70
2019-06-01T11:45:52.187Z,36.60
2019-06-01T11:48:19.663Z,37.80
2019-06-01T11:50:47.394Z,36.80
2019-06-01T11:53:14.819Z,39.20
2019-06-01T11:55:43.373Z,38.00
2019-06-01T11:58:11.089Z,39.50
2019-06-01T12:00:39.508Z,35.40
2019-06-01T12:03:06.979Z,33.30
2019-06-01T12:05:37.885Z,32.20
2019-06-01T12:08:05.449Z,30.30
2019-06-01T12:10:32.898Z,30.50
2019-06-01T12:13:00.378Z,30.00
2019-06-01T12:15:28.455Z,29.30
2019-06-01T12:17:56.317Z,29.60
2019-06-01T12:20:23.796Z,29.70
2019-06-01T12:22:51.264Z,28.90
2019-06-01T12:25:18.691Z,30.20
2019-06-01T12:27:46.204Z,32.00
2019-06-01T12:30:14.540Z,35.00
2019-06-01T12:32:42.033Z,33.70
2019-06-01T12:35:10.389Z,32.80
2019-06-01T12:37:56.032Z,30.00
2019-06-01T12:40:07.977Z,29.20
2019-06-01T12:42:35.491Z,29.40
2019-06-01T12:45:04.075Z,28.70
2019-06-01T12:47:31.538Z,32.10
2019-06-01T12:49:59.315Z,32.50
2019-06-01T12:52:26.751Z,33.70
2019-06-01T12:54:54.778Z,30.40
2019-06-01T12:57:22.239Z,31.40
2019-06-01T12:59:51.256Z,29.80
2019-06-01T13:02:19.082Z,32.10
2019-06-01T13:04:46.905Z,29.70
2019-06-01T13:07:14.382Z,30.10
2019-06-01T13:09:42.150Z,31.20
2019-06-01T13:12:09.626Z,29.30
2019-06-01T13:14:37.167Z,31.80
2019-06-01T13:17:07.759Z,31.00
2019-06-01T13:19:34.671Z,29.90
2019-06-01T13:22:02.310Z,29.20
2019-06-01T13:24:29.843Z,30.00
2019-06-01T13:26:57.566Z,28.50
2019-06-01T13:29:25.383Z,28.90
2019-06-01T13:31:53.182Z,29.70
2019-06-01T13:34:20.624Z,31.20
2019-06-01T13:36:48.975Z,31.10
2019-06-01T13:39:16.808Z,30.80
2019-06-01T13:41:45.069Z,33.30
2019-06-01T13:44:12.582Z,33.50
2019-06-01T13:46:40.021Z,31.00
2019-06-01T13:49:10.221Z,30.00
2019-06-01T13:51:37.675Z,28.10
2019-06-01T13:54:05.090Z,28.90
2019-06-01T13:56:32.636Z,30.50
2019-06-01T13:58:59.987Z,31.60
2019-06-01T14:01:28.037Z,31.10
2019-06-01T14:03:55.832Z,30.80
2019-06-01T14:06:23.299Z,30.00
2019-06-01T14:08:51.164Z,29.20
2019-06-01T14:11:18.838Z,29.10
2019-06-01T14:13:47.391Z,29.20
2019-06-01T14:16:14.847Z,29.30
2019-06-01T14:18:42.292Z,29.90
2019-06-01T14:21:09.733Z,29.60
2019-06-01T14:23:37.204Z,29.70
2019-06-01T14:26:04.620Z,32.30
2019-06-01T14:28:32.592Z,34.30
2019-06-01T14:31:00.055Z,36.20
2019-06-01T14:33:31.668Z,36.90
2019-06-01T14:35:59.630Z,38.60
2019-06-01T14:38:27.109Z,40.30
2019-06-01T14:40:55.193Z,39.80
2019-06-01T14:43:22.662Z,37.00
2019-06-01T14:45:51.539Z,37.50
2019-06-01T14:48:19.061Z,37.40
2019-06-01T14:50:47.505Z,38.60
2019-06-01T14:53:14.949Z,38.80
2019-06-01T14:55:42.629Z,38.60
2019-06-01T14:58:10.093Z,39.70
2019-06-01T15:00:37.823Z,41.00
2019-06-01T15:03:05.640Z,40.70
2019-06-01T15:05:33.099Z,40.00
2019-06-01T15:08:00.494Z,40.20
2019-06-01T15:10:30.546Z,40.90
2019-06-01T15:13:03.373Z,41.00
2019-06-01T15:15:31.236Z,40.10
2019-06-01T15:17:58.651Z,40.00
2019-06-01T15:20:26.070Z,38.80
2019-06-01T15:22:58.441Z,40.30
2019-06-01T15:25:28.329Z,37.10
2019-06-01T15:27:56.889Z,37.60
2019-06-01T15:30:24.448Z,38.90
2019-06-01T15:32:51.973Z,38.30
2019-06-01T15:35:19.385Z,38.80
2019-06-01T15:37:47.150Z,40.60
2019-06-01T15:40:15.309Z,40.00
2019-06-01T15:42:42.768Z,40.70
2019-06-01T15:45:10.447Z,39.90
2019-06-01T15:47:38.145Z,41.30
2019-06-01T15:50:06.834Z,42.70
2019-06-01T15:52:34.309Z,42.90
2019-06-01T15:55:02.869Z,41.00
2019-06-01T15:57:30.359Z,42.60
2019-06-01T15:59:58.611Z,42.40
2019-06-01T16:02:26.318Z,41.20
2019-06-01T16:04:54.866Z,41.00
2019-06-01T16:07:22.800Z,41.70
2019-06-01T16:09:51.633Z,43.50
2019-06-01T16:12:19.019Z,42.20
2019-06-01T16:14:46.758Z,42.10
2019-06-01T16:17:16.044Z,42.00
2019-06-01T16:19:43.365Z,42.70
2019-06-01T16:22:11.071Z,43.20
2019-06-01T16:24:38.535Z,41.20
2019-06-01T16:27:06.004Z,41.40
2019-06-01T16:29:33.413Z,41.50
2019-06-01T16:32:01.180Z,42.70
2019-06-01T16:34:28.973Z,43.40
2019-06-01T16:36:56.800Z,42.90
2019-06-01T16:39:24.269Z,43.70
2019-06-01T16:41:52.014Z,44.60
2019-06-01T16:44:19.989Z,43.80
2019-06-01T16:46:47.467Z,44.10
2019-06-01T16:49:17.239Z,44.90
2019-06-01T16:51:51.952Z,43.50
2019-06-01T16:54:19.466Z,43.80
2019-06-01T16:56:46.923Z,44.50
2019-06-01T16:59:14.354Z,43.40
2019-06-01T17:01:42.097Z,43.90
2019-06-01T17:04:09.861Z,44.40
2019-06-01T17:06:38.339Z,44.00
2019-06-01T17:09:07.018Z,43.80
2019-06-01T17:11:34.642Z,44.70
2019-06-01T17:14:02.868Z,46.60
2019-06-01T17:16:30.552Z,44.70
2019-06-01T17:18:58.973Z,45.10
2019-06-01T17:21:27.703Z,45.40
2019-06-01T17:23:55.510Z,45.40
2019-06-01T17:26:23.211Z,44.50
2019-06-01T17:28:50.642Z,45.40
2019-06-01T17:31:18.077Z,44.50
2019-06-01T17:33:45.769Z,44.40
2019-06-01T17:36:13.231Z,45.80
2019-06-01T17:38:41.066Z,45.60
2019-06-01T17:41:08.783Z,44.50
2019-06-01T17:43:36.211Z,45.30
2019-06-01T17:46:05.191Z,45.40
2019-06-01T17:48:32.743Z,47.20
2019-06-01T17:51:00.489Z,46.10
2019-06-01T17:53:27.879Z,46.60
2019-06-01T17:55:55.340Z,46.30
2019-06-01T17:58:22.822Z,45.60
2019-06-01T18:00:50.479Z,45.60
2019-06-01T18:03:17.879Z,46.50
2019-06-01T18:05:45.754Z,46.30
2019-06-01T18:08:13.852Z,47.40
2019-06-01T18:10:53.914Z,48.30
2019-06-01T18:13:18.442Z,48.70
2019-06-01T18:15:50.130Z,48.20
2019-06-01T18:18:23.613Z,47.90
2019-06-01T18:20:51.625Z,47.40
2019-06-01T18:23:19.082Z,48.70
2019-06-01T18:25:47.111Z,47.40
2019-06-01T18:28:19.193Z,47.70
2019-06-01T18:30:48.302Z,48.10
2019-06-01T18:33:15.928Z,48.50
2019-06-01T18:35:43.653Z,48.20
2019-06-01T18:38:13.038Z,47.70
2019-06-01T18:40:40.880Z,49.40
2019-06-01T18:43:14.078Z,48.00
2019-06-01T18:45:42.557Z,47.60
2019-06-01T18:48:10.299Z,50.80
2019-06-01T18:50:37.905Z,48.90
2019-06-01T18:53:06.010Z,51.40
2019-06-01T18:55:35.827Z,50.40
2019-06-01T18:58:03.911Z,50.10
2019-06-01T19:00:31.463Z,50.50
2019-06-01T19:02:59.233Z,51.50
2019-06-01T19:05:27.081Z,51.20
2019-06-01T19:07:55.311Z,54.80
2019-06-01T19:10:22.833Z,56.20
2019-06-01T19:12:50.717Z,55.00
2019-06-01T19:15:26.699Z,56.30
2019-06-01T19:17:47.784Z,56.70
2019-06-01T19:20:15.418Z,57.10
2019-06-01T19:22:43.280Z,57.90
2019-06-01T19:25:13.201Z,59.10
2019-06-01T19:27:40.796Z,59.90
2019-06-01T19:30:10.822Z,65.10
2019-06-01T19:32:40.960Z,68.10
2019-06-01T19:35:09.681Z,71.70
2019-06-01T19:37:42.729Z,73.60
2019-06-01T19:40:13.440Z,75.70
2019-06-01T19:42:40.873Z,76.70
2019-06-01T19:45:22.582Z,84.90
2019-06-01T19:47:38.383Z,87.80
2019-06-01T19:50:06.353Z,86.70
2019-06-01T19:52:34.057Z,87.70
2019-06-01T19:55:01.532Z,88.60
2019-06-01T19:57:29.232Z,90.30
2019-06-01T19:59:56.691Z,91.80
2019-06-01T20:02:33.333Z,93.30
2019-06-01T20:04:53.647Z,94.10
2019-06-01T20:07:21.406Z,94.00
2019-06-01T20:09:49.065Z,95.20
2019-06-01T20:12:18.574Z,95.60
2019-06-01T20:14:46.414Z,96.60
2019-06-01T20:17:17.815Z,97.70
2019-06-01T20:19:46.429Z,98.00
2019-06-01T20:22:17.057Z,98.40
2019-06-01T20:24:44.441Z,98.10
2019-06-01T20:27:19.487Z,98.30
2019-06-01T20:29:47.113Z,98.90
2019-06-01T20:32:15.807Z,99.40
2019-06-01T20:34:43.520Z,99.70
2019-06-01T20:37:11.842Z,99.90
2019-06-01T20:39:39.911Z,99.90
2019-06-01T20:42:20.768Z,99.90
2019-06-01T20:44:38.496Z,99.90
2019-06-01T20:47:06.299Z,99.90
2019-06-01T20:49:37.494Z,99.90
2019-06-01T20:52:04.946Z,99.90
2019-06-01T20:54:32.384Z,99.90
2019-06-01T20:57:00.225Z,99.90
2019-06-01T20:59:27.973Z,99.90
2019-06-01T21:01:55.412Z,99.90
2019-06-01T21:04:22.823Z,99.90
2019-06-01T21:06:50.293Z,99.90
2019-06-01T21:09:17.849Z,99.90
2019-06-01T21:11:45.653Z,99.90
2019-06-01T21:14:13.854Z,99.90
2019-06-01T21:16:42.507Z,99.90
2019-06-01T21:19:12.080Z,99.90
2019-06-01T21:21:39.843Z,99.90
2019-06-01T21:24:07.393Z,99.90
2019-06-01T21:26:34.789Z,99.90
2019-06-01T21:29:02.562Z,99.90
2019-06-01T21:31:32.919Z,99.90
2019-06-01T21:34:00.674Z,99.90
2019-06-01T21:36:31.811Z,99.90
2019-06-01T21:38:59.584Z,99.90
2019-06-01T21:41:27.324Z,99.90
2019-06-01T21:43:55.043Z,99.90
2019-06-01T21:46:23.695Z,99.90
2019-06-01T21:48:51.498Z,99.90
2019-06-01T21:51:19.734Z,99.90
2019-06-01T21:53:47.199Z,99.90
2019-06-01T21:56:17.435Z,99.90
2019-06-01T21:58:44.193Z,99.90
2019-06-01T22:01:11.840Z,99.90
2019-06-01T22:03:39.398Z,99.90
2019-06-01T22:06:07.973Z,99.90
2019-06-01T22:08:35.410Z,99.90
2019-06-01T22:11:03.170Z,99.90
2019-06-01T22:13:30.560Z,99.90
2019-06-01T22:15:57.982Z,99.90
2019-06-01T22:18:25.812Z,99.90
2019-06-01T22:20:53.420Z,99.90
2019-06-01T22:23:21.951Z,99.90
2019-06-01T22:25:49.747Z,99.90
2019-06-01T22:28:18.137Z,99.90
2019-06-01T22:30:45.598Z,99.90
2019-06-01T22:33:13.095Z,99.90
2019-06-01T22:35:40.810Z,99.90
2019-06-01T22:38:08.263Z,99.90
2019-06-01T22:40:35.633Z,99.90
2019-06-01T22:43:03.047Z,99.90
2019-06-01T22:45:30.643Z,99.90
2019-06-01T22:47:58.266Z,99.90
2019-06-01T22:50:25.585Z,99.90
2019-06-01T22:52:53.184Z,99.90
2019-06-01T22:55:20.584Z,99.90
2019-06-01T22:57:48.090Z,99.90
2019-06-01T23:00:16.364Z,99.90
2019-06-01T23:02:43.829Z,99.90
2019-06-01T23:05:11.294Z,99.90
2019-06-01T23:07:39.010Z,99.90
2019-06-01T23:10:07.186Z,99.90
2019-06-01T23:12:34.918Z,99.90
2019-06-01T23:15:02.370Z,99.90
2019-06-01T23:17:29.985Z,99.90
2019-06-01T23:19:57.779Z,99.90
2019-06-01T23:22:26.010Z,99.90
2019-06-01T23:24:53.441Z,99.90
2019-06-01T23:27:22.068Z,99.90
2019-06-01T23:29:49.847Z,99.90
2019-06-01T23:32:17.342Z,99.90
2019-06-01T23:34:44.968Z,99.90
2019-06-01T23:37:12.436Z,99.90
2019-06-01T23:39:39.972Z,99.90
2019-06-01T23:42:07.441Z,99.90
2019-06-01T23:44:35.146Z,99.90
2019-06-01T23:47:03.004Z,99.90
2019-06-01T23:49:31.350Z,99.90
2019-06-01T23:51:58.772Z,99.90
2019-06-01T23:54:26.057Z,99.90
2019-06-01T23:56:53.384Z,99.90
2019-06-01T23:59:21.360Z,99.90
